createdAt,value
2019-04-20T00:02:18.883Z,11.31
2019-04-20T00:04:45.554Z,11.31
2019-04-20T00:07:12.233Z,11.31
2019-04-20T00:09:40.096Z,11.19
2019-04-20T00:12:14.855Z,11.31
2019-04-20T00:14:37.177Z,11.25
2019-04-20T00:17:03.061Z,11.19
2019-04-20T00:19:37.091Z,11.12
2019-04-20T00:22:03.699Z,11.00
2019-04-20T00:24:39.288Z,11.12
2019-04-20T00:27:32.740Z,11.19
2019-04-20T00:29:50.866Z,11.12
2019-04-20T00:32:14.319Z,11.12
2019-04-20T00:34:36.541Z,11.00
2019-04-20T00:36:58.649Z,11.19
2019-04-20T00:39:25.765Z,10.88
2019-04-20T00:41:58.976Z,11.06
2019-04-20T00:44:27.838Z,10.94
2019-04-20T00:47:04.484Z,10.81
2019-04-20T00:49:30.687Z,10.63
2019-04-20T00:52:17.163Z,10.81
2019-04-20T00:54:11.522Z,10.50
2019-04-20T00:56:38.929Z,10.81
2019-04-20T00:59:18.858Z,10.50
2019-04-20T01:01:52.309Z,10.06
2019-04-20T01:04:20.291Z,10.50
2019-04-20T01:06:46.769Z,10.31
2019-04-20T01:09:09.970Z,10.13
2019-04-20T01:11:40.508Z,10.19
2019-04-20T01:14:07.824Z,10.31
2019-04-20T01:16:40.256Z,10.38
2019-04-20T01:18:59.699Z,10.25
2019-04-20T01:21:28.816Z,10.19
2019-04-20T01:23:59.559Z,10.00
2019-04-20T01:26:22.653Z,10.06
2019-04-20T01:29:03.935Z,10.19
2019-04-20T01:31:27.243Z,10.13
2019-04-20T01:33:57.272Z,9.75
2019-04-20T01:36:33.424Z,9.69
2019-04-20T01:38:56.754Z,9.63
2019-04-20T01:41:09.611Z,9.75
2019-04-20T01:43:35.839Z,9.75
2019-04-20T01:46:11.269Z,9.63
2019-04-20T01:48:33.989Z,10.00
2019-04-20T01:51:04.427Z,9.75
2019-04-20T01:53:55.715Z,9.88
2019-04-20T01:56:25.635Z,9.75
2019-04-20T01:58:59.796Z,9.88
2019-04-20T02:01:21.046Z,9.94
2019-04-20T02:03:55.072Z,9.88
2019-04-20T02:06:23.151Z,9.94
2019-04-20T02:08:51.729Z,9.44
2019-04-20T02:11:23.036Z,9.38
2019-04-20T02:13:49.846Z,9.63
2019-04-20T02:16:22.680Z,9.38
2019-04-20T02:19:00.477Z,9.44
2019-04-20T02:21:24.561Z,9.25
2019-04-20T02:23:46.426Z,9.50
2019-04-20T02:26:04.990Z,9.13
2019-04-20T02:28:53.651Z,9.13
2019-04-20T02:31:42.816Z,9.25
2019-04-20T02:34:18.286Z,8.88
2019-04-20T02:39:33.008Z,8.81
2019-04-20T02:44:24.135Z,8.88
2019-04-20T02:46:52.663Z,8.81
2019-04-20T02:49:19.720Z,8.94
2019-04-20T02:51:41.944Z,8.63
2019-04-20T02:56:45.342Z,8.63
2019-04-20T02:59:31.603Z,8.56
2019-04-20T03:01:23.361Z,8.38
2019-04-20T03:03:37.663Z,8.69
2019-04-20T03:06:09.580Z,8.44
2019-04-20T03:08:49.736Z,8.63
2019-04-20T03:11:22.433Z,8.56
2019-04-20T03:13:45.994Z,8.38
2019-04-20T03:16:11.013Z,8.63
2019-04-20T03:18:35.004Z,8.56
2019-04-20T03:21:08.169Z,8.63
2019-04-20T03:23:45.847Z,8.31
2019-04-20T03:26:06.385Z,8.06
2019-04-20T03:28:51.494Z,8.00
2019-04-20T03:31:47.341Z,8.06
2019-04-20T03:34:15.583Z,8.19
2019-04-20T03:36:25.944Z,8.06
2019-04-20T03:38:45.110Z,8.13
2019-04-20T03:41:05.184Z,8.00
2019-04-20T03:43:20.322Z,8.13
2019-04-20T03:45:54.266Z,8.06
2019-04-20T03:48:33.539Z,8.06
2019-04-20T03:51:04.644Z,8.25
2019-04-20T03:53:29.822Z,8.25
2019-04-20T03:56:03.718Z,8.25
2019-04-20T03:58:37.847Z,8.13
2019-04-20T04:01:27.456Z,8.19
2019-04-20T04:04:05.146Z,8.19
2019-04-20T04:06:23.514Z,7.94
2019-04-20T04:08:48.614Z,7.94
2019-04-20T04:11:22.063Z,8.13
2019-04-20T04:13:33.627Z,8.19
2019-04-20T04:16:04.922Z,7.81
2019-04-20T04:18:34.727Z,7.81
2019-04-20T04:21:03.063Z,7.81
2019-04-20T04:23:40.957Z,8.00
2019-04-20T04:26:08.523Z,8.06
2019-04-20T04:28:39.216Z,8.00
2019-04-20T04:31:08.205Z,8.13
2019-04-20T04:35:59.182Z,8.00
2019-04-20T04:38:35.947Z,8.13
2019-04-20T04:41:11.283Z,7.81
2019-04-20T04:43:25.449Z,7.62
2019-04-20T04:45:33.978Z,8.00
2019-04-20T04:48:02.003Z,8.00
2019-04-20T04:50:31.109Z,7.81
2019-04-20T04:53:04.620Z,7.94
2019-04-20T04:55:33.703Z,8.06
2019-04-20T04:57:51.657Z,8.19
2019-04-20T05:00:25.565Z,8.00
2019-04-20T05:02:54.402Z,8.25
2019-04-20T05:05:38.159Z,8.06
2019-04-20T05:07:58.443Z,8.06
2019-04-20T05:10:15.969Z,8.06
2019-04-20T05:12:42.279Z,8.00
2019-04-20T05:15:16.158Z,8.19
2019-04-20T05:17:57.882Z,8.25
2019-04-20T05:20:22.953Z,8.31
2019-04-20T05:22:51.067Z,8.31
2019-04-20T05:25:44.470Z,8.25
2019-04-20T05:28:20.689Z,8.25
2019-04-20T05:30:44.185Z,8.25
2019-04-20T05:33:11.646Z,8.44
2019-04-20T05:35:54.528Z,8.38
2019-04-20T05:38:34.032Z,8.31
2019-04-20T05:40:50.492Z,8.38
2019-04-20T05:43:17.695Z,8.44
2019-04-20T05:45:41.373Z,8.50
2019-04-20T05:48:11.909Z,8.50
2019-04-20T05:50:42.449Z,8.56
2019-04-20T05:53:16.220Z,8.50
2019-04-20T05:55:40.079Z,8.69
2019-04-20T05:58:08.938Z,8.50
2019-04-20T06:00:45.901Z,8.63
2019-04-20T06:03:00.498Z,8.63
2019-04-20T06:05:40.749Z,8.56
2019-04-20T06:07:59.180Z,8.81
2019-04-20T06:10:32.040Z,9.00
2019-04-20T06:12:56.679Z,9.00
2019-04-20T06:15:26.465Z,9.25
2019-04-20T06:17:58.379Z,9.06
2019-04-20T06:20:33.403Z,8.94
2019-04-20T06:23:20.846Z,8.88
2019-04-20T06:25:55.880Z,9.06
2019-04-20T06:28:12.424Z,9.38
2019-04-20T06:30:34.834Z,9.19
2019-04-20T06:34:01.330Z,9.44
2019-04-20T06:36:26.169Z,9.38
2019-04-20T06:38:56.249Z,9.81
2019-04-20T06:41:21.247Z,9.81
2019-04-20T06:43:44.164Z,9.81
2019-04-20T06:46:10.040Z,9.88
2019-04-20T06:48:44.410Z,9.88
2019-04-20T06:50:58.133Z,10.13
2019-04-20T06:53:43.431Z,10.19
2019-04-20T06:56:18.111Z,10.19
2019-04-20T06:58:46.126Z,10.50
2019-04-20T07:01:07.699Z,10.44
2019-04-20T07:03:54.283Z,10.38
2019-04-20T07:06:06.102Z,10.75
2019-04-20T07:11:02.232Z,10.75
2019-04-20T07:13:17.671Z,10.69
2019-04-20T07:15:46.440Z,10.88
2019-04-20T07:18:23.030Z,11.00
2019-04-20T07:21:25.166Z,10.94
2019-04-20T07:23:48.232Z,10.94
2019-04-20T07:26:03.976Z,11.12
2019-04-20T07:28:36.885Z,11.12
2019-04-20T07:30:55.462Z,11.12
2019-04-20T07:33:30.328Z,11.31
2019-04-20T07:35:50.736Z,11.31
2019-04-20T07:40:52.395Z,11.63
2019-04-20T07:43:17.435Z,11.63
2019-04-20T07:45:41.650Z,11.81
2019-04-20T07:48:15.047Z,11.81
2019-04-20T07:50:34.795Z,11.94
2019-04-20T07:53:04.312Z,12.13
2019-04-20T07:55:47.836Z,12.19
2019-04-20T07:57:58.981Z,12.19
2019-04-20T08:00:41.924Z,12.37
2019-04-20T08:03:16.329Z,12.44
2019-04-20T08:05:36.365Z,12.50
2019-04-20T08:08:12.718Z,12.56
2019-04-20T08:10:33.783Z,12.69
2019-04-20T08:15:42.952Z,13.00
2019-04-20T08:18:21.407Z,13.13
2019-04-20T08:20:33.628Z,13.31
2019-04-20T08:23:01.674Z,13.31
2019-04-20T08:25:20.433Z,13.38
2019-04-20T08:27:55.039Z,13.38
2019-04-20T08:31:02.450Z,13.56
2019-04-20T08:33:33.605Z,13.81
2019-04-20T08:36:09.292Z,13.62
2019-04-20T08:39:03.958Z,13.88
2019-04-20T08:40:53.991Z,14.00
2019-04-20T08:43:40.258Z,14.00
2019-04-20T08:45:52.448Z,14.06
2019-04-20T08:48:26.318Z,14.31
2019-04-20T08:50:55.590Z,14.81
2019-04-20T08:53:20.253Z,14.69
2019-04-20T08:55:38.534Z,14.69
2019-04-20T08:57:51.487Z,14.75
2019-04-20T09:00:28.893Z,14.75
2019-04-20T09:02:51.913Z,14.87
2019-04-20T09:05:30.395Z,14.94
2019-04-20T09:07:53.523Z,15.13
2019-04-20T09:10:34.383Z,15.31
2019-04-20T09:12:58.345Z,15.31
2019-04-20T09:15:10.453Z,15.38
2019-04-20T09:17:50.585Z,15.50
2019-04-20T09:20:21.521Z,15.56
2019-04-20T09:23:02.498Z,15.63
2019-04-20T09:25:48.480Z,15.75
2019-04-20T09:28:11.589Z,15.81
2019-04-20T09:30:44.042Z,15.88
2019-04-20T09:33:33.617Z,16.00
2019-04-20T09:36:02.930Z,16.06
2019-04-20T09:38:30.446Z,16.31
2019-04-20T09:41:04.784Z,16.19
2019-04-20T09:43:34.780Z,16.19
2019-04-20T09:46:05.213Z,16.31
2019-04-20T09:48:34.674Z,16.44
2019-04-20T09:51:16.806Z,16.69
2019-04-20T09:53:35.790Z,16.87
2019-04-20T09:56:06.279Z,16.87
2019-04-20T09:58:31.083Z,16.69
2019-04-20T10:01:03.340Z,16.87
2019-04-20T10:03:16.388Z,16.94
2019-04-20T10:05:43.378Z,17.00
2019-04-20T10:08:10.058Z,16.94
2019-04-20T10:10:41.690Z,17.12
2019-04-20T10:13:05.999Z,17.25
2019-04-20T10:15:33.063Z,17.25
2019-04-20T10:17:59.553Z,17.12
2019-04-20T10:20:30.945Z,17.19
2019-04-20T10:22:54.343Z,17.56
2019-04-20T10:25:20.603Z,17.81
2019-04-20T10:27:47.472Z,17.87
2019-04-20T10:30:14.685Z,18.06
2019-04-20T10:32:45.623Z,17.94
2019-04-20T10:35:09.021Z,18.37
2019-04-20T10:37:38.212Z,18.81
2019-04-20T10:40:04.828Z,18.31
2019-04-20T10:42:32.154Z,18.44
2019-04-20T10:45:00.563Z,18.31
2019-04-20T10:47:27.190Z,18.50
2019-04-20T10:49:56.521Z,18.62
2019-04-20T10:52:23.595Z,18.56
2019-04-20T10:54:50.384Z,18.62
2019-04-20T10:57:17.441Z,18.44
2019-04-20T10:59:43.771Z,18.37
2019-04-20T11:02:09.943Z,18.31
2019-04-20T11:04:36.775Z,18.31
2019-04-20T11:07:02.891Z,18.50
2019-04-20T11:09:29.082Z,18.75
2019-04-20T11:11:56.360Z,18.69
2019-04-20T11:14:28.002Z,18.69
2019-04-20T11:16:50.843Z,19.06
2019-04-20T11:19:16.930Z,18.75
2019-04-20T11:21:44.020Z,18.75
2019-04-20T11:24:10.137Z,19.12
2019-04-20T11:26:39.942Z,19.25
2019-04-20T11:29:06.391Z,19.25
2019-04-20T11:31:39.147Z,19.37
2019-04-20T11:34:00.484Z,19.31
2019-04-20T11:36:27.426Z,19.69
2019-04-20T11:38:54.450Z,19.50
2019-04-20T11:41:25.517Z,19.31
2019-04-20T11:43:49.465Z,19.25
2019-04-20T11:46:16.563Z,19.50
2019-04-20T11:48:43.481Z,19.31
2019-04-20T11:51:09.647Z,19.31
2019-04-20T11:53:36.385Z,19.62
2019-04-20T11:56:02.562Z,19.31
2019-04-20T11:58:28.483Z,19.19
2019-04-20T12:01:04.063Z,19.31
2019-04-20T12:03:35.370Z,19.25
2019-04-20T12:05:57.834Z,19.25
2019-04-20T12:08:23.001Z,19.25
2019-04-20T12:10:54.111Z,19.12
2019-04-20T12:13:16.948Z,19.19
2019-04-20T12:15:43.681Z,19.00
2019-04-20T12:18:09.686Z,19.25
2019-04-20T12:20:36.629Z,19.25
2019-04-20T12:23:02.755Z,19.25
2019-04-20T12:25:31.598Z,19.37
2019-04-20T12:27:59.005Z,19.37
2019-04-20T12:30:25.906Z,19.50
2019-04-20T12:32:56.454Z,19.44
2019-04-20T12:35:20.252Z,19.69
2019-04-20T12:37:47.239Z,19.81
2019-04-20T12:40:16.296Z,19.62
2019-04-20T12:42:44.558Z,19.50
2019-04-20T12:45:11.969Z,19.50
2019-04-20T12:47:37.953Z,19.44
2019-04-20T12:50:07.572Z,19.62
2019-04-20T12:52:34.666Z,19.50
2019-04-20T12:55:02.734Z,19.62
2019-04-20T12:57:28.947Z,19.75
2019-04-20T12:59:55.233Z,19.56
2019-04-20T13:02:21.175Z,19.75
2019-04-20T13:04:47.129Z,19.69
2019-04-20T13:07:13.106Z,19.56
2019-04-20T13:09:50.679Z,19.62
2019-04-20T13:12:24.039Z,19.69
2019-04-20T13:15:14.030Z,19.56
2019-04-20T13:17:40.083Z,19.62
2019-04-20T13:20:06.284Z,19.62
2019-04-20T13:22:32.811Z,19.75
2019-04-20T13:24:58.998Z,19.94
2019-04-20T13:27:25.079Z,19.75
2019-04-20T13:29:52.580Z,20.00
2019-04-20T13:32:20.112Z,19.75
2019-04-20T13:34:46.565Z,19.69
2019-04-20T13:37:13.860Z,19.56
2019-04-20T13:39:40.750Z,19.62
2019-04-20T13:42:15.035Z,19.56
2019-04-20T13:44:34.965Z,19.81
2019-04-20T13:47:01.044Z,19.94
2019-04-20T13:49:27.153Z,20.00
2019-04-20T13:51:53.084Z,19.94
2019-04-20T13:54:24.887Z,19.87
2019-04-20T13:56:51.076Z,20.12
2019-04-20T13:59:21.593Z,20.00
2019-04-20T14:01:55.251Z,20.00
2019-04-20T14:04:23.185Z,19.81
2019-04-20T14:06:51.060Z,19.75
2019-04-20T14:09:17.440Z,19.81
2019-04-20T14:11:43.522Z,19.75
2019-04-20T14:14:10.748Z,19.81
2019-04-20T14:16:36.960Z,20.00
2019-04-20T14:19:03.066Z,19.75
2019-04-20T14:21:32.186Z,19.81
2019-04-20T14:23:59.131Z,19.87
2019-04-20T14:26:25.219Z,19.87
2019-04-20T14:28:51.304Z,20.00
2019-04-20T14:31:17.250Z,20.00
2019-04-20T14:33:44.538Z,19.94
2019-04-20T14:36:10.822Z,19.81
2019-04-20T14:38:38.210Z,19.81
2019-04-20T14:41:04.410Z,19.81
2019-04-20T14:43:34.680Z,19.87
2019-04-20T14:46:01.062Z,19.75
2019-04-20T14:48:28.895Z,19.81
2019-04-20T14:50:55.979Z,19.87
2019-04-20T14:53:23.131Z,19.75
2019-04-20T14:55:49.402Z,19.81
2019-04-20T14:58:37.573Z,19.87
2019-04-20T15:01:06.793Z,19.81
2019-04-20T15:03:38.234Z,19.94
2019-04-20T15:06:03.313Z,20.12
2019-04-20T15:08:30.415Z,20.00
2019-04-20T15:10:56.876Z,19.94
2019-04-20T15:13:22.804Z,20.12
2019-04-20T15:15:50.627Z,20.12
2019-04-20T15:18:19.581Z,20.31
2019-04-20T15:20:47.802Z,20.37
2019-04-20T15:23:15.696Z,20.69
2019-04-20T15:25:42.684Z,20.31
2019-04-20T15:28:10.153Z,20.37
2019-04-20T15:30:36.262Z,20.12
2019-04-20T15:33:03.113Z,20.31
2019-04-20T15:35:30.181Z,20.31
2019-04-20T15:37:57.288Z,20.12
2019-04-20T15:40:23.534Z,20.06
2019-04-20T15:42:58.959Z,19.87
2019-04-20T15:45:18.923Z,20.06
2019-04-20T15:47:45.859Z,20.12
2019-04-20T15:50:13.783Z,20.31
2019-04-20T15:52:44.679Z,20.19
2019-04-20T15:55:14.310Z,20.37
2019-04-20T15:57:36.634Z,20.37
2019-04-20T16:00:04.541Z,20.31
2019-04-20T16:02:33.609Z,20.12
2019-04-20T16:05:01.542Z,20.75
2019-04-20T16:07:30.729Z,20.56
2019-04-20T16:09:56.802Z,20.19
2019-04-20T16:12:23.005Z,20.37
2019-04-20T16:14:49.413Z,20.25
2019-04-20T16:17:17.520Z,20.31
2019-04-20T16:19:51.375Z,20.25
2019-04-20T16:22:12.128Z,20.06
2019-04-20T16:24:42.931Z,20.19
2019-04-20T16:27:17.973Z,19.87
2019-04-20T16:29:44.006Z,19.87
2019-04-20T16:32:09.860Z,19.94
2019-04-20T16:34:37.170Z,19.62
2019-04-20T16:37:04.305Z,19.56
2019-04-20T16:39:30.362Z,19.50
2019-04-20T16:41:56.330Z,19.37
2019-04-20T16:44:23.105Z,19.37
2019-04-20T16:46:52.152Z,19.31
2019-04-20T16:49:19.253Z,19.19
2019-04-20T16:51:45.399Z,19.19
2019-04-20T16:54:12.033Z,19.12
2019-04-20T16:56:39.058Z,19.12
2019-04-20T16:59:09.660Z,19.06
2019-04-20T17:01:32.794Z,19.06
2019-04-20T17:04:07.009Z,18.94
2019-04-20T17:06:27.547Z,18.94
2019-04-20T17:08:54.575Z,18.87
2019-04-20T17:11:21.637Z,18.94
2019-04-20T17:13:53.057Z,18.81
2019-04-20T17:16:15.840Z,18.81
2019-04-20T17:18:45.630Z,18.75
2019-04-20T17:21:18.668Z,18.69
2019-04-20T17:23:42.206Z,18.75
2019-04-20T17:26:08.184Z,18.62
2019-04-20T17:28:42.735Z,18.62
2019-04-20T17:31:29.346Z,18.69
2019-04-20T17:34:04.967Z,18.75
2019-04-20T17:36:27.718Z,18.75
2019-04-20T17:38:55.967Z,18.94
2019-04-20T17:41:42.909Z,18.62
2019-04-20T17:44:05.681Z,18.62
2019-04-20T17:46:28.677Z,18.44
2019-04-20T17:49:00.859Z,18.37
2019-04-20T17:51:34.553Z,18.37
2019-04-20T17:53:53.804Z,18.25
2019-04-20T17:56:15.225Z,18.12
2019-04-20T17:58:43.918Z,18.12
2019-04-20T18:01:41.283Z,18.12
2019-04-20T18:04:29.692Z,18.12
2019-04-20T18:06:39.412Z,18.00
2019-04-20T18:09:03.133Z,17.94
2019-04-20T18:11:23.801Z,17.94
2019-04-20T18:14:00.625Z,17.94
2019-04-20T18:16:45.423Z,18.00
2019-04-20T18:19:03.261Z,18.50
2019-04-20T18:21:21.898Z,18.19
2019-04-20T18:23:50.328Z,18.19
2019-04-20T18:26:40.970Z,18.25
2019-04-20T18:29:22.698Z,17.94
2019-04-20T18:31:13.931Z,17.69
2019-04-20T18:33:42.521Z,17.94
2019-04-20T18:36:13.337Z,17.50
2019-04-20T18:38:42.461Z,17.37
2019-04-20T18:41:08.893Z,17.25
2019-04-20T18:43:33.024Z,17.37
2019-04-20T18:46:18.031Z,17.31
2019-04-20T18:48:48.497Z,17.12
2019-04-20T18:50:59.794Z,17.12
2019-04-20T18:53:33.633Z,17.00
2019-04-20T18:55:57.570Z,17.06
2019-04-20T18:58:22.845Z,17.06
2019-04-20T19:00:51.794Z,16.94
2019-04-20T19:03:25.761Z,16.81
2019-04-20T19:05:45.165Z,16.75
2019-04-20T19:08:13.786Z,16.87
2019-04-20T19:10:41.756Z,16.75
2019-04-20T19:13:19.297Z,16.69
2019-04-20T19:16:08.161Z,16.69
2019-04-20T19:18:50.054Z,16.56
2019-04-20T19:21:04.454Z,16.69
2019-04-20T19:23:30.352Z,16.50
2019-04-20T19:26:05.464Z,16.44
2019-04-20T19:28:29.036Z,16.31
2019-04-20T19:31:06.815Z,16.25
2019-04-20T19:33:35.577Z,16.25
2019-04-20T19:35:57.376Z,16.00
2019-04-20T19:38:21.881Z,16.31
2019-04-20T19:40:51.194Z,16.06
2019-04-20T19:43:22.073Z,15.94
2019-04-20T19:46:15.491Z,15.88
2019-04-20T19:48:22.981Z,15.88
2019-04-20T19:51:00.189Z,15.75
2019-04-20T19:53:26.325Z,15.81
2019-04-20T19:55:44.020Z,15.88
2019-04-20T19:58:11.452Z,15.88
2019-04-20T20:00:40.710Z,15.69
2019-04-20T20:03:07.773Z,15.56
2019-04-20T20:05:40.851Z,15.31
2019-04-20T20:08:11.346Z,15.31
2019-04-20T20:10:37.685Z,15.31
2019-04-20T20:13:02.593Z,15.25
2019-04-20T20:15:32.658Z,15.25
2019-04-20T20:18:16.824Z,15.19
2019-04-20T20:20:41.543Z,15.13
2019-04-20T20:22:54.864Z,14.94
2019-04-20T20:25:25.783Z,14.94
2019-04-20T20:27:53.099Z,15.06
2019-04-20T20:30:26.170Z,14.81
2019-04-20T20:33:01.539Z,14.75
2019-04-20T20:35:16.723Z,14.81
2019-04-20T20:37:47.450Z,14.81
2019-04-20T20:40:16.073Z,14.69
2019-04-20T20:42:48.427Z,14.63
2019-04-20T20:45:12.931Z,14.63
2019-04-20T20:47:51.316Z,14.38
2019-04-20T20:50:20.289Z,14.56
2019-04-20T20:52:38.189Z,14.50
2019-04-20T20:55:02.402Z,14.31
2019-04-20T20:57:25.838Z,14.50
2019-04-20T20:59:55.684Z,14.19
2019-04-20T21:02:22.419Z,14.25
2019-04-20T21:04:43.881Z,14.25
2019-04-20T21:07:10.930Z,14.25
2019-04-20T21:09:37.601Z,13.94
2019-04-20T21:12:09.139Z,14.06
2019-04-20T21:14:35.015Z,13.94
2019-04-20T21:17:05.551Z,14.13
2019-04-20T21:19:45.249Z,13.88
2019-04-20T21:22:04.472Z,13.81
2019-04-20T21:24:25.408Z,13.94
2019-04-20T21:26:52.054Z,13.88
2019-04-20T21:29:20.474Z,13.75
2019-04-20T21:31:56.963Z,13.56
2019-04-20T21:34:18.630Z,13.81
2019-04-20T21:36:41.235Z,13.56
2019-04-20T21:39:09.655Z,13.62
2019-04-20T21:41:35.705Z,13.62
2019-04-20T21:44:06.812Z,13.62
2019-04-20T21:46:37.108Z,13.50
2019-04-20T21:49:09.675Z,13.56
2019-04-20T21:51:37.347Z,13.50
2019-04-20T21:53:56.434Z,13.62
2019-04-20T21:56:21.607Z,13.38
2019-04-20T21:58:50.422Z,13.44
2019-04-20T22:01:29.789Z,13.50
2019-04-20T22:03:46.441Z,13.50
2019-04-20T22:06:13.946Z,13.19
2019-04-20T22:08:46.832Z,13.13
2019-04-20T22:11:08.150Z,13.38
2019-04-20T22:13:38.849Z,13.00
2019-04-20T22:16:06.676Z,13.00
2019-04-20T22:18:31.808Z,12.88
2019-04-20T22:21:05.945Z,13.06
2019-04-20T22:23:43.286Z,12.88
2019-04-20T22:26:07.761Z,13.13
2019-04-20T22:28:22.164Z,12.88
2019-04-20T22:30:48.463Z,12.63
2019-04-20T22:33:22.812Z,12.56
2019-04-20T22:35:50.800Z,12.50
2019-04-20T22:38:15.643Z,12.56
2019-04-20T22:40:42.501Z,12.56
2019-04-20T22:43:08.709Z,12.31
2019-04-20T22:45:41.162Z,12.37
2019-04-20T22:48:08.216Z,12.31
2019-04-20T22:50:45.342Z,12.25
2019-04-20T22:53:14.978Z,12.25
2019-04-20T22:55:52.948Z,12.44
2019-04-20T22:58:01.265Z,12.44
2019-04-20T23:00:31.054Z,12.63
2019-04-20T23:02:49.345Z,12.50
2019-04-20T23:05:15.242Z,12.25
2019-04-20T23:07:41.190Z,12.13
2019-04-20T23:10:08.748Z,12.25
2019-04-20T23:12:35.742Z,12.19
2019-04-20T23:15:02.841Z,12.06
2019-04-20T23:17:35.862Z,12.00
2019-04-20T23:20:00.942Z,11.88
2019-04-20T23:22:33.872Z,11.94
2019-04-20T23:24:53.283Z,12.06
2019-04-20T23:27:24.555Z,12.13
2019-04-20T23:29:47.194Z,12.19
2019-04-20T23:32:14.565Z,11.81
2019-04-20T23:34:40.979Z,11.94
2019-04-20T23:37:15.687Z,12.00
2019-04-20T23:39:36.455Z,11.75
2019-04-20T23:42:08.760Z,12.00
2019-04-20T23:44:47.300Z,11.88
2019-04-20T23:47:22.365Z,11.50
2019-04-20T23:50:11.258Z,11.56
2019-04-20T23:52:42.652Z,11.81
2019-04-20T23:54:58.189Z,11.81
2019-04-20T23:57:17.706Z,11.56
2019-04-20T23:59:46.123Z,11.81
